Time;durP1;ratioP1;P1;durP2;ratioP2;P2;SDS_P1;SDS_P2;PMS_P1;PMS_P2;Temp;Humidity;BMP_temperature;BMP_pressure;BME280_temperature;BME280_humidity;BME280_pressure;Samples;Min_cycle;Max_cycle;Signal;HPM_P1;HPM_P2
2023/09/27 00:01:37;;;;;;;4.90;3.10;;;20.70;89.60;;;;;;5032792;28;20033;-82
2023/09/27 00:04:03;;;;;;;4.32;3.30;;;20.70;89.60;;;;;;5032630;28;20029;-81
2023/09/27 00:06:29;;;;;;;4.60;3.22;;;20.70;89.50;;;;;;5031457;28;20048;-81
2023/09/27 00:08:55;;;;;;;4.30;2.72;;;20.80;89.60;;;;;;5032801;28;20026;-82
2023/09/27 00:11:21;;;;;;;3.47;2.60;;;20.80;89.60;;;;;;5032653;28;20068;-82
2023/09/27 00:13:46;;;;;;;3.17;2.30;;;20.80;89.60;;;;;;5032817;28;20030;-81
2023/09/27 00:16:12;;;;;;;6.30;3.28;;;20.80;89.50;;;;;;5032312;28;20546;-81
2023/09/27 00:18:38;;;;;;;6.07;4.55;;;20.80;89.30;;;;;;5032711;28;20042;-81
2023/09/27 00:21:03;;;;;;;6.53;5.57;;;20.90;89.20;;;;;;5032335;28;20463;-80
2023/09/27 00:23:29;;;;;;;3.70;3.38;;;20.80;89.00;;;;;;5032052;28;20025;-81
2023/09/27 00:25:54;;;;;;;7.25;3.90;;;20.80;89.00;;;;;;5032415;28;20040;-82
2023/09/27 00:28:20;;;;;;;5.85;3.83;;;20.80;89.10;;;;;;5032842;28;20048;-82
2023/09/27 00:30:48;;;;;;;4.25;3.55;;;20.80;89.10;;;;;;5031474;28;20525;-82
2023/09/27 00:33:14;;;;;;;3.17;2.67;;;20.80;89.20;;;;;;5032083;28;20084;-82
2023/09/27 00:35:39;;;;;;;6.40;4.75;;;20.80;89.30;;;;;;5032974;28;20026;-82
2023/09/27 00:38:06;;;;;;;5.20;4.03;;;20.80;89.20;;;;;;5032567;28;20075;-82
2023/09/27 00:40:31;;;;;;;6.03;4.30;;;20.70;89.20;;;;;;5032147;28;20531;-82
2023/09/27 00:42:57;;;;;;;4.25;3.28;;;20.70;89.30;;;;;;5032401;28;20104;-81
2023/09/27 00:45:23;;;;;;;3.72;2.85;;;20.70;89.40;;;;;;5032160;28;20037;-81
2023/09/27 00:47:51;;;;;;;3.22;2.40;;;20.70;89.50;;;;;;5031911;28;20038;-81
2023/09/27 00:50:17;;;;;;;3.38;2.97;;;20.70;89.50;;;;;;5034628;28;20395;-81
2023/09/27 00:52:45;;;;;;;4.25;2.67;;;20.70;89.60;;;;;;5035964;28;20033;-81
2023/09/27 00:55:12;;;;;;;3.53;2.97;;;20.70;89.60;;;;;;5036058;28;20056;-81
2023/09/27 00:57:39;;;;;;;3.38;2.45;;;20.70;89.70;;;;;;5036012;28;20029;-81
2023/09/27 01:00:09;;;;;;;4.63;3.83;;;20.70;89.80;;;;;;5035776;28;20472;-82
2023/09/27 01:02:35;;;;;;;5.05;4.07;;;20.70;89.90;;;;;;5035267;28;20099;-82
2023/09/27 01:05:02;;;;;;;3.58;2.90;;;20.70;89.90;;;;;;5035868;28;20037;-82
2023/09/27 01:07:29;;;;;;;3.33;2.10;;;20.70;90.20;;;;;;5036041;28;20033;-81
2023/09/27 01:09:54;;;;;;;3.03;2.25;;;20.70;89.90;;;;;;5035833;28;20033;-81
2023/09/27 01:12:20;;;;;;;3.20;2.45;;;20.80;89.90;;;;;;5035565;28;20248;-81
2023/09/27 01:14:45;;;;;;;2.53;1.95;;;20.80;89.80;;;;;;5035100;28;20037;-80
2023/09/27 01:17:11;;;;;;;3.85;2.20;;;20.80;89.80;;;;;;5034316;28;20033;-80
2023/09/27 01:19:38;;;;;;;4.25;2.72;;;20.80;89.70;;;;;;5035425;28;20025;-81
2023/09/27 01:22:04;;;;;;;4.35;2.75;;;20.80;89.70;;;;;;5035545;28;20029;-80
2023/09/27 01:24:32;;;;;;;2.78;2.13;;;20.70;89.70;;;;;;5035321;28;20128;-80
2023/09/27 01:26:59;;;;;;;3.50;2.60;;;20.70;89.80;;;;;;5034149;28;20125;-80
2023/09/27 01:29:25;;;;;;;2.80;2.30;;;20.80;89.90;;;;;;5033861;28;20026;-81
2023/09/27 01:31:50;;;;;;;3.33;2.28;;;20.70;89.80;;;;;;5034175;28;20029;-81
2023/09/27 01:34:16;;;;;;;3.55;2.55;;;20.80;89.90;;;;;;5035200;28;20077;-81
2023/09/27 01:36:42;;;;;;;2.25;1.90;;;20.70;89.80;;;;;;5034013;28;20030;-81
2023/09/27 01:39:08;;;;;;;6.75;2.40;;;20.80;89.80;;;;;;5034658;28;20419;-81
2023/09/27 01:41:33;;;;;;;3.80;3.10;;;20.70;89.70;;;;;;5035143;28;20068;-81
2023/09/27 01:43:59;;;;;;;2.78;2.03;;;20.80;89.80;;;;;;5035139;28;20459;-80
2023/09/27 01:46:24;;;;;;;2.53;2.00;;;20.70;89.70;;;;;;5034721;28;20029;-81
2023/09/27 01:48:51;;;;;;;2.25;2.05;;;20.80;89.80;;;;;;5035064;28;20061;-81
2023/09/27 01:51:17;;;;;;;6.40;3.13;;;20.80;89.70;;;;;;5033493;28;20494;-82
2023/09/27 01:53:42;;;;;;;3.60;2.75;;;20.80;89.70;;;;;;5034877;28;20053;-81
2023/09/27 01:56:08;;;;;;;3.67;2.72;;;20.80;89.70;;;;;;5034475;28;20032;-81
2023/09/27 01:58:33;;;;;;;4.43;2.67;;;20.70;89.70;;;;;;5035160;28;20120;-82
2023/09/27 02:00:59;;;;;;;6.00;3.05;;;20.80;89.80;;;;;;5034049;28;20527;-82
2023/09/27 02:03:25;;;;;;;2.95;2.38;;;20.70;89.70;;;;;;5034156;28;20025;-82
2023/09/27 02:05:52;;;;;;;3.15;2.60;;;20.70;89.80;;;;;;5033018;28;20049;-82
2023/09/27 02:08:18;;;;;;;4.68;2.72;;;20.70;89.70;;;;;;5034678;28;20049;-82
2023/09/27 02:10:43;;;;;;;6.28;2.97;;;20.70;89.70;;;;;;5033395;28;20033;-82
2023/09/27 02:13:09;;;;;;;3.10;2.70;;;20.70;89.80;;;;;;5034305;28;20213;-82
2023/09/27 02:15:34;;;;;;;3.50;2.85;;;20.70;89.80;;;;;;5033555;28;20112;-82
2023/09/27 02:18:00;;;;;;;3.30;2.90;;;20.70;89.80;;;;;;5033132;28;20096;-82
2023/09/27 02:20:26;;;;;;;2.75;2.40;;;20.70;89.70;;;;;;5034438;28;20037;-82
2023/09/27 02:22:54;;;;;;;4.18;3.05;;;20.70;89.80;;;;;;5034322;28;20027;-82
2023/09/27 02:25:20;;;;;;;4.85;2.70;;;20.70;89.80;;;;;;5034388;28;20046;-82
2023/09/27 02:27:46;;;;;;;4.45;3.00;;;20.60;89.80;;;;;;5034085;28;20021;-83
2023/09/27 02:30:12;;;;;;;3.88;3.05;;;20.60;89.90;;;;;;5016274;28;20043;-83
2023/09/27 02:32:40;;;;;;;4.22;3.58;;;20.60;90.00;;;;;;5033111;28;20120;-82
2023/09/27 02:35:07;;;;;;;4.53;3.42;;;20.60;90.00;;;;;;5034306;28;20029;-82
2023/09/27 02:37:32;;;;;;;4.65;3.38;;;20.60;90.00;;;;;;5034410;28;20152;-82
2023/09/27 02:39:58;;;;;;;3.83;3.13;;;20.50;90.00;;;;;;5034206;28;20121;-82
2023/09/27 02:42:24;;;;;;;3.38;3.08;;;20.50;90.00;;;;;;5033096;28;20429;-82
2023/09/27 02:44:50;;;;;;;7.35;3.25;;;20.50;90.00;;;;;;5033336;28;20064;-82
2023/09/27 02:47:16;;;;;;;3.85;3.28;;;20.50;90.00;;;;;;5033853;28;20049;-82
2023/09/27 02:49:42;;;;;;;3.63;2.60;;;20.40;90.10;;;;;;5033796;28;20026;-82
2023/09/27 02:52:07;;;;;;;4.93;3.90;;;20.40;90.40;;;;;;5034183;28;20461;-82
2023/09/27 02:54:33;;;;;;;4.72;3.72;;;20.40;90.10;;;;;;5033919;28;20466;-82
2023/09/27 02:56:59;;;;;;;3.45;3.03;;;20.40;90.20;;;;;;5033552;28;20030;-82
2023/09/27 02:59:25;;;;;;;5.97;3.38;;;20.30;90.20;;;;;;5032644;28;20045;-82
2023/09/27 03:01:50;;;;;;;5.28;3.17;;;20.30;90.30;;;;;;5032572;28;20029;-81
2023/09/27 03:04:16;;;;;;;5.05;4.10;;;20.30;90.30;;;;;;5033546;28;20036;-82
2023/09/27 03:06:42;;;;;;;3.35;2.88;;;20.40;90.30;;;;;;5033256;28;20489;-82
2023/09/27 03:09:15;;;;;;;4.97;3.67;;;20.30;90.30;;;;;;5033399;28;20486;-82
2023/09/27 03:11:42;;;;;;;5.00;3.30;;;20.40;90.30;;;;;;5033637;28;20115;-82
2023/09/27 03:14:08;;;;;;;5.05;2.50;;;20.30;90.30;;;;;;5031094;28;20030;-81
2023/09/27 03:16:34;;;;;;;3.92;2.42;;;20.30;90.30;;;;;;5033575;28;20445;-81
2023/09/27 03:19:00;;;;;;;4.47;3.28;;;20.40;90.30;;;;;;5033731;28;20030;-82
2023/09/27 03:21:29;;;;;;;3.53;2.70;;;20.40;90.30;;;;;;5033384;28;20036;-83
2023/09/27 03:23:55;;;;;;;3.40;2.97;;;20.30;90.30;;;;;;5033934;28;20178;-83
2023/09/27 03:26:23;;;;;;;3.42;2.90;;;20.40;90.30;;;;;;5033295;28;20033;-82
2023/09/27 03:28:52;;;;;;;3.75;2.95;;;20.40;90.30;;;;;;5033485;28;20064;-82
2023/09/27 03:31:19;;;;;;;4.07;2.45;;;20.40;90.20;;;;;;5033356;28;20087;-82
2023/09/27 03:33:46;;;;;;;5.38;2.65;;;20.40;90.20;;;;;;5033345;28;20385;-81
2023/09/27 03:36:12;;;;;;;3.55;2.40;;;20.40;90.20;;;;;;5033945;28;20060;-81
2023/09/27 03:38:38;;;;;;;3.65;2.75;;;20.40;90.20;;;;;;5032710;28;20029;-81
2023/09/27 03:41:08;;;;;;;6.85;4.50;;;20.40;90.20;;;;;;5033485;28;20069;-81
2023/09/27 03:43:34;;;;;;;4.20;2.90;;;20.30;90.20;;;;;;5033339;28;20033;-81
2023/09/27 03:46:03;;;;;;;3.67;2.67;;;20.30;90.30;;;;;;5032807;28;20033;-81
2023/09/27 03:48:30;;;;;;;4.28;2.95;;;20.30;90.40;;;;;;5033078;28;20060;-81
2023/09/27 03:50:56;;;;;;;5.20;2.88;;;20.20;90.40;;;;;;5033396;28;20057;-82
2023/09/27 03:53:21;;;;;;;2.97;2.65;;;20.20;90.40;;;;;;5032561;28;20079;-81
2023/09/27 03:55:47;;;;;;;3.53;2.42;;;20.20;90.40;;;;;;5033052;28;20118;-82
2023/09/27 03:58:13;;;;;;;3.35;2.70;;;20.20;90.40;;;;;;5033189;28;20036;-82
2023/09/27 04:00:39;;;;;;;4.45;3.60;;;20.30;90.40;;;;;;5031672;28;20037;-82
2023/09/27 04:03:04;;;;;;;4.30;2.70;;;20.30;90.40;;;;;;5033048;28;20108;-82
2023/09/27 04:05:30;;;;;;;4.28;2.90;;;20.30;90.40;;;;;;5032480;28;20489;-82
2023/09/27 04:07:57;;;;;;;4.15;2.60;;;20.30;90.40;;;;;;5032752;28;20466;-82
2023/09/27 04:10:24;;;;;;;4.18;3.72;;;20.20;90.40;;;;;;5032981;28;20033;-82
2023/09/27 04:12:50;;;;;;;5.70;3.60;;;20.10;90.40;;;;;;5015481;28;20037;-82
2023/09/27 04:15:16;;;;;;;2.78;2.40;;;20.00;90.60;;;;;;5032480;28;20025;-83
2023/09/27 04:17:42;;;;;;;3.55;2.40;;;20.00;90.70;;;;;;5033045;28;20026;-83
2023/09/27 04:20:16;;;;;;;4.28;3.00;;;20.10;90.70;;;;;;5031492;28;20048;-82
2023/09/27 04:22:49;;;;;;;4.13;2.92;;;20.10;90.70;;;;;;5031678;28;20433;-82
2023/09/27 04:25:15;;;;;;;3.28;2.75;;;20.10;90.60;;;;;;5034255;28;20052;-82
2023/09/27 04:27:43;;;;;;;3.17;2.80;;;20.10;90.60;;;;;;5035455;28;20362;-82
2023/09/27 04:30:18;;;;;;;3.17;2.55;;;20.10;90.60;;;;;;5036740;28;20040;-82
2023/09/27 04:32:51;;;;;;;3.15;2.42;;;20.20;90.60;;;;;;5036413;28;20389;-82
2023/09/27 04:35:17;;;;;;;3.38;2.50;;;20.20;90.60;;;;;;5036634;28;20378;-83
2023/09/27 04:37:43;;;;;;;3.97;2.42;;;20.20;90.60;;;;;;5035179;28;20099;-83
2023/09/27 04:40:13;;;;;;;2.83;2.25;;;20.20;90.50;;;;;;5036402;28;20033;-82
2023/09/27 04:42:43;;;;;;;4.18;3.30;;;20.30;90.60;;;;;;5036856;28;20028;-83
2023/09/27 04:45:11;;;;;;;3.83;2.70;;;20.20;90.80;;;;;;5036298;28;20025;-83
2023/09/27 04:47:37;;;;;;;4.18;2.92;;;20.20;90.50;;;;;;5036405;28;20025;-82
2023/09/27 04:50:03;;;;;;;2.80;2.60;;;20.20;90.60;;;;;;5036164;28;20446;-80
2023/09/27 04:52:29;;;;;;;3.35;3.00;;;20.20;90.60;;;;;;5036307;28;20084;-82
2023/09/27 04:54:57;;;;;;;2.95;2.65;;;20.10;90.50;;;;;;5035100;28;20038;-82
2023/09/27 04:57:26;;;;;;;3.45;2.70;;;20.10;90.60;;;;;;5036203;28;20030;-83
2023/09/27 04:59:52;;;;;;;3.17;2.15;;;20.10;90.60;;;;;;5034530;28;20424;-81
2023/09/27 05:02:21;;;;;;;3.40;2.70;;;20.10;90.60;;;;;;5034850;28;20044;-82
2023/09/27 05:04:47;;;;;;;3.83;2.58;;;20.10;90.60;;;;;;5036029;28;20029;-82
2023/09/27 05:07:15;;;;;;;3.65;2.88;;;20.10;90.60;;;;;;5035983;28;20108;-81
2023/09/27 05:09:41;;;;;;;4.15;2.88;;;20.20;90.60;;;;;;5035915;28;20175;-82
2023/09/27 05:12:07;;;;;;;3.72;2.60;;;20.20;90.60;;;;;;5035725;28;20084;-82
2023/09/27 05:14:32;;;;;;;3.42;2.85;;;20.20;90.60;;;;;;5035460;28;20476;-82
2023/09/27 05:16:58;;;;;;;3.55;2.90;;;20.10;90.60;;;;;;5035591;28;20484;-82
2023/09/27 05:19:24;;;;;;;5.82;4.15;;;20.10;90.60;;;;;;5034469;28;20202;-82
2023/09/27 05:21:49;;;;;;;4.15;2.85;;;20.10;90.60;;;;;;5035634;28;20387;-82
2023/09/27 05:24:15;;;;;;;3.35;2.50;;;20.10;90.60;;;;;;5035340;28;20378;-82
2023/09/27 05:26:41;;;;;;;3.88;2.95;;;20.00;90.60;;;;;;5035204;28;20385;-82
2023/09/27 05:29:13;;;;;;;3.22;2.38;;;20.00;90.70;;;;;;5035750;28;20030;-83
2023/09/27 05:31:45;;;;;;;3.08;2.50;;;20.00;90.70;;;;;;5035363;28;20106;-83
2023/09/27 05:34:11;;;;;;;5.55;3.67;;;20.10;90.70;;;;;;5035530;28;20029;-83
2023/09/27 05:36:37;;;;;;;3.78;2.97;;;20.10;90.70;;;;;;5035037;28;20104;-83
2023/09/27 05:39:05;;;;;;;4.05;3.33;;;20.10;90.70;;;;;;5033913;28;20059;-83
2023/09/27 05:41:31;;;;;;;3.97;3.03;;;20.10;90.70;;;;;;5035387;28;20033;-83
2023/09/27 05:43:56;;;;;;;4.50;3.97;;;20.00;90.70;;;;;;5033920;28;20030;-84
2023/09/27 05:46:22;;;;;;;5.05;3.60;;;20.00;90.70;;;;;;5033609;28;20033;-81
2023/09/27 05:48:49;;;;;;;6.10;4.47;;;20.00;90.80;;;;;;5033710;28;20082;-79
2023/09/27 05:51:15;;;;;;;7.60;4.35;;;19.90;90.80;;;;;;5035368;28;20057;-84
2023/09/27 05:53:40;;;;;;;5.60;4.57;;;19.90;90.90;;;;;;5033913;28;20385;-84
2023/09/27 05:56:07;;;;;;;5.57;3.78;;;19.80;90.90;;;;;;5035129;28;20029;-83
2023/09/27 05:58:34;;;;;;;5.03;3.92;;;19.80;90.90;;;;;;5034528;28;20376;-83
2023/09/27 06:01:04;;;;;;;5.28;4.53;;;19.70;90.90;;;;;;5034543;28;20041;-83
2023/09/27 06:03:31;;;;;;;5.68;3.25;;;19.70;91.10;;;;;;5034733;28;20069;-84
2023/09/27 06:05:58;;;;;;;6.60;5.68;;;19.60;91.20;;;;;;5033828;28;20065;-85
2023/09/27 06:08:24;;;;;;;4.38;3.17;;;19.50;91.30;;;;;;5033520;28;20035;-84
2023/09/27 06:10:50;;;;;;;5.82;4.90;;;19.50;91.40;;;;;;5038573;28;20485;-84
2023/09/27 06:13:16;;;;;;;5.90;4.18;;;19.60;91.40;;;;;;5032552;28;20036;-82
2023/09/27 06:15:42;;;;;;;5.43;4.75;;;19.50;91.40;;;;;;5032886;28;20144;-83
2023/09/27 06:18:07;;;;;;;4.25;3.60;;;19.50;91.40;;;;;;5033301;28;20029;-82
2023/09/27 06:20:33;;;;;;;4.35;3.40;;;19.60;91.50;;;;;;5032756;28;20100;-81
2023/09/27 06:23:03;;;;;;;5.88;3.78;;;19.50;91.60;;;;;;5038697;28;20443;-79
2023/09/27 06:25:30;;;;;;;5.90;4.53;;;19.50;91.60;;;;;;5040375;28;20577;-78
2023/09/27 06:27:57;;;;;;;7.32;5.72;;;19.50;92.00;;;;;;5033280;28;20108;-79
2023/09/27 06:30:23;;;;;;;6.20;4.03;;;19.50;91.80;;;;;;5032845;28;20418;-79
2023/09/27 06:32:49;;;;;;;5.57;3.00;;;19.40;92.00;;;;;;5032669;28;20056;-78
2023/09/27 06:35:15;;;;;;;5.13;4.07;;;19.40;92.20;;;;;;5033653;28;20048;-76
2023/09/27 06:37:48;;;;;;;5.80;4.55;;;19.40;92.20;;;;;;5017338;28;20045;-75
2023/09/27 06:40:23;;;;;;;7.85;3.90;;;19.40;92.20;;;;;;5033641;28;20049;-75
2023/09/27 06:42:49;;;;;;;10.38;6.45;;;19.40;92.30;;;;;;5033764;28;20102;-75
2023/09/27 06:45:15;;;;;;;8.77;6.90;;;19.40;92.30;;;;;;5033228;28;20456;-76
2023/09/27 06:47:41;;;;;;;5.65;4.75;;;19.40;92.30;;;;;;5032195;28;20041;-80
2023/09/27 06:50:08;;;;;;;6.68;3.60;;;19.40;92.50;;;;;;5034277;28;20060;-79
2023/09/27 06:52:37;;;;;;;4.25;3.33;;;19.50;92.40;;;;;;5033906;28;20137;-79
2023/09/27 06:55:03;;;;;;;13.80;8.95;;;19.50;92.40;;;;;;5032546;28;20065;-79
2023/09/27 06:57:29;;;;;;;8.23;5.13;;;19.50;92.30;;;;;;5043083;28;20067;-83
2023/09/27 06:59:54;;;;;;;6.97;3.60;;;19.30;92.50;;;;;;5049583;28;20540;-83
2023/09/27 07:02:21;;;;;;;4.25;3.42;;;19.30;92.60;;;;;;5041530;28;20434;-87
2023/09/27 07:04:47;;;;;;;12.77;8.98;;;19.40;92.60;;;;;;5033585;28;20319;-81
2023/09/27 07:07:13;;;;;;;6.50;4.55;;;19.50;92.60;;;;;;5033444;28;20030;-82
2023/09/27 07:09:40;;;;;;;12.05;7.45;;;19.40;92.70;;;;;;5041464;28;20077;-87
2023/09/27 07:12:06;;;;;;;10.27;7.25;;;19.50;92.80;;;;;;5035883;28;20029;-85
2023/09/27 07:14:32;;;;;;;8.00;6.72;;;19.40;92.80;;;;;;5052063;28;20040;-84
2023/09/27 07:16:57;;;;;;;9.02;7.30;;;19.30;92.80;;;;;;5053302;28;20087;-85
2023/09/27 07:19:23;;;;;;;9.48;6.95;;;19.30;93.00;;;;;;5052579;28;20453;-81
2023/09/27 07:21:49;;;;;;;7.25;5.30;;;19.30;93.00;;;;;;5035563;28;20394;-84
2023/09/27 07:24:14;;;;;;;5.03;3.80;;;19.40;92.90;;;;;;5032692;28;20589;-84
2023/09/27 07:26:41;;;;;;;9.30;6.10;;;19.50;92.80;;;;;;5033214;28;20331;-86
2023/09/27 07:29:07;;;;;;;8.77;6.40;;;19.60;92.80;;;;;;5033664;28;20025;-88
2023/09/27 07:31:34;;;;;;;7.25;5.45;;;19.70;92.90;;;;;;5033465;28;20045;-84
2023/09/27 07:34:00;;;;;;;6.75;4.40;;;19.70;92.90;;;;;;5032657;28;20056;-85
2023/09/27 07:36:26;;;;;;;5.75;3.28;;;19.70;92.80;;;;;;5032865;28;20064;-84
2023/09/27 07:38:52;;;;;;;8.35;5.53;;;19.80;92.70;;;;;;5033551;28;20458;-86
2023/09/27 07:41:18;;;;;;;5.20;3.35;;;19.80;92.60;;;;;;5031935;28;20133;-84
2023/09/27 07:43:44;;;;;;;8.60;3.70;;;19.90;92.60;;;;;;5040654;28;20101;-84
2023/09/27 07:46:12;;;;;;;8.07;6.00;;;20.00;92.50;;;;;;5041201;28;20029;-86
2023/09/27 07:48:39;;;;;;;10.70;5.88;;;20.00;92.70;;;;;;5043016;28;20061;-88
2023/09/27 07:51:18;;;;;;;7.45;5.18;;;19.90;92.90;;;;;;5042093;28;20084;-88
2023/09/27 07:53:44;;;;;;;7.60;5.45;;;19.90;93.00;;;;;;5042888;28;20026;-86
2023/09/27 07:56:19;;;;;;;10.13;6.82;;;19.90;93.00;;;;;;5033457;28;20053;-86
2023/09/27 07:58:47;;;;;;;16.80;11.18;;;19.90;93.00;;;;;;5029665;28;20060;-81
2023/09/27 08:01:12;;;;;;;7.55;5.97;;;19.80;93.20;;;;;;5045924;28;20033;-82
2023/09/27 08:03:38;;;;;;;13.00;9.73;;;19.80;93.30;;;;;;5046640;28;20026;-83
2023/09/27 08:06:04;;;;;;;12.02;7.53;;;19.80;93.20;;;;;;5045124;28;20017;-84
2023/09/27 08:08:30;;;;;;;14.93;10.85;;;19.80;93.50;;;;;;5042313;28;20390;-82
2023/09/27 08:10:57;;;;;;;15.10;10.05;;;19.80;93.30;;;;;;5041456;28;20029;-84
2023/09/27 08:13:25;;;;;;;16.13;10.73;;;19.70;93.30;;;;;;5046590;28;20542;-87
2023/09/27 08:15:51;;;;;;;9.73;7.68;;;19.70;93.60;;;;;;5054916;28;20025;-84
2023/09/27 08:18:18;;;;;;;8.15;6.22;;;19.70;93.60;;;;;;5037281;28;20128;-87
2023/09/27 08:20:44;;;;;;;10.02;7.35;;;19.80;93.70;;;;;;5057698;28;20091;-88
2023/09/27 08:23:09;;;;;;;6.57;4.85;;;19.80;93.70;;;;;;5045103;28;20021;-87
2023/09/27 08:25:37;;;;;;;7.93;5.53;;;20.00;93.60;;;;;;5048855;28;20056;-86
2023/09/27 08:28:05;;;;;;;5.18;3.83;;;20.10;93.50;;;;;;5050368;28;20041;-85
2023/09/27 08:30:31;;;;;;;8.35;4.30;;;20.20;93.20;;;;;;5032511;28;20124;-84
2023/09/27 08:32:57;;;;;;;10.38;8.13;;;20.40;93.00;;;;;;5035294;28;20449;-88
2023/09/27 08:35:23;;;;;;;10.80;8.70;;;20.50;92.80;;;;;;5033709;28;20057;-88
2023/09/27 08:37:48;;;;;;;6.50;4.78;;;20.50;92.90;;;;;;5039063;28;20136;-85
2023/09/27 08:40:16;;;;;;;6.45;3.80;;;20.50;92.80;;;;;;5036092;28;20037;-86
2023/09/27 08:42:43;;;;;;;6.35;4.95;;;20.60;92.70;;;;;;5036270;28;20033;-85
2023/09/27 08:45:12;;;;;;;5.57;4.32;;;20.60;92.40;;;;;;5035790;28;20470;-87
2023/09/27 08:47:44;;;;;;;9.77;5.78;;;20.70;92.30;;;;;;5036235;28;20103;-85
2023/09/27 08:50:14;;;;;;;11.40;9.67;;;20.80;92.20;;;;;;5036183;28;20040;-87
2023/09/27 08:52:49;;;;;;;11.68;7.88;;;20.90;92.10;;;;;;5035874;28;20409;-86
2023/09/27 08:55:17;;;;;;;8.43;6.82;;;21.00;92.00;;;;;;5034451;28;20070;-81
2023/09/27 08:57:48;;;;;;;6.05;4.80;;;21.00;92.00;;;;;;5034329;28;20032;-88
2023/09/27 09:00:22;;;;;;;6.40;4.45;;;21.10;91.90;;;;;;5033445;28;20084;-88
2023/09/27 09:02:56;;;;;;;8.65;6.30;;;21.10;92.00;;;;;;5035392;28;20108;-86
2023/09/27 09:05:22;;;;;;;8.63;5.40;;;21.30;91.90;;;;;;5034822;28;20097;-85
2023/09/27 09:07:48;;;;;;;10.10;6.97;;;21.40;91.60;;;;;;5033345;28;20413;-86
2023/09/27 09:10:15;;;;;;;7.90;5.68;;;21.50;91.70;;;;;;5033766;28;20036;-81
2023/09/27 09:12:43;;;;;;;7.60;4.40;;;21.50;91.50;;;;;;5034539;28;20055;-84
2023/09/27 09:15:26;;;;;;;8.75;5.82;;;21.60;91.50;;;;;;5033430;28;20105;-86
2023/09/27 09:17:57;;;;;;;9.43;7.07;;;21.70;91.50;;;;;;5032304;28;20401;-84
2023/09/27 09:20:27;;;;;;;6.38;4.55;;;21.80;91.60;;;;;;5031773;28;20103;-87
2023/09/27 09:22:57;;;;;;;9.25;6.03;;;21.80;91.50;;;;;;5032895;28;20033;-83
2023/09/27 09:25:24;;;;;;;10.30;7.88;;;21.90;91.40;;;;;;5033825;28;20490;-87
2023/09/27 09:28:09;;;;;;;8.80;6.55;;;22.10;91.50;;;;;;5032882;28;20485;-87
2023/09/27 09:30:35;;;;;;;11.73;8.20;;;22.20;91.30;;;;;;5034445;28;20399;-88
2023/09/27 09:33:02;;;;;;;11.60;7.55;;;22.30;91.50;;;;;;5034938;28;20060;-87
2023/09/27 09:35:32;;;;;;;6.72;5.63;;;22.40;91.30;;;;;;5033998;28;20427;-89
2023/09/27 09:38:01;;;;;;;6.65;4.68;;;22.30;91.00;;;;;;5032146;28;20032;-88
2023/09/27 09:40:28;;;;;;;8.68;6.40;;;22.40;90.90;;;;;;5030242;28;20049;-84
2023/09/27 09:42:57;;;;;;;9.32;7.25;;;22.50;90.90;;;;;;5034686;28;20029;-87
2023/09/27 09:45:23;;;;;;;6.15;5.30;;;22.40;91.00;;;;;;5034537;28;20025;-88
2023/09/27 09:47:48;;;;;;;8.07;6.10;;;22.40;91.10;;;;;;5037712;28;20041;-86
2023/09/27 09:50:18;;;;;;;7.05;4.70;;;22.40;91.10;;;;;;5032561;28;20037;-85
2023/09/27 09:52:57;;;;;;;6.20;4.40;;;22.40;91.00;;;;;;5034450;28;20060;-80
2023/09/27 09:55:34;;;;;;;6.25;3.85;;;22.50;91.00;;;;;;5034864;28;20025;-78
2023/09/27 09:58:14;;;;;;;6.18;3.67;;;22.60;90.80;;;;;;5034194;28;20045;-88
2023/09/27 10:00:49;;;;;;;7.47;4.53;;;22.60;90.90;;;;;;5034165;28;20470;-83
2023/09/27 10:03:20;;;;;;;6.63;5.00;;;22.60;90.70;;;;;;5033769;28;20112;-86
2023/09/27 10:05:50;;;;;;;9.82;4.85;;;22.60;90.90;;;;;;5032770;28;20083;-86
2023/09/27 10:08:17;;;;;;;5.35;3.03;;;22.60;90.90;;;;;;5032180;28;20076;-79
2023/09/27 10:10:43;;;;;;;7.57;4.65;;;22.60;90.80;;;;;;5032324;28;20037;-78
2023/09/27 10:13:10;;;;;;;5.35;3.90;;;22.70;90.80;;;;;;5033265;28;20476;-81
2023/09/27 10:15:38;;;;;;;6.35;4.72;;;22.80;90.80;;;;;;5030920;28;20042;-80
2023/09/27 10:18:22;;;;;;;7.68;3.50;;;22.80;91.30;;;;;;5031425;28;20031;-80
2023/09/27 10:21:12;;;;;;;6.68;4.53;;;22.90;91.00;;;;;;5032104;28;20029;-79
2023/09/27 10:23:47;;;;;;;4.07;2.63;;;23.00;91.30;;;;;;5032920;28;20420;-80
2023/09/27 10:26:27;;;;;;;6.43;3.92;;;23.10;91.20;;;;;;5032592;28;20025;-81
2023/09/27 10:29:09;;;;;;;7.38;3.80;;;23.10;91.30;;;;;;5033004;28;20438;-80
2023/09/27 10:31:37;;;;;;;4.60;3.08;;;23.20;90.80;;;;;;5031216;28;20025;-81
2023/09/27 10:34:23;;;;;;;6.50;3.53;;;23.30;90.40;;;;;;5032683;28;20033;-82
2023/09/27 10:36:49;;;;;;;3.47;2.40;;;23.40;91.20;;;;;;5030826;28;20030;-81
2023/09/27 10:39:15;;;;;;;6.28;2.97;;;23.40;90.90;;;;;;5031033;28;20367;-81
2023/09/27 10:41:48;;;;;;;4.45;2.88;;;23.40;90.80;;;;;;5032874;28;20048;-81
2023/09/27 10:44:34;;;;;;;4.70;2.63;;;23.40;90.30;;;;;;5030039;28;20029;-77
2023/09/27 10:47:03;;;;;;;4.85;2.85;;;23.30;90.00;;;;;;5029529;28;20025;-78
2023/09/27 10:49:43;;;;;;;4.00;2.75;;;23.30;90.00;;;;;;5029845;28;20104;-78
2023/09/27 10:52:16;;;;;;;4.28;2.53;;;23.20;89.30;;;;;;5014095;28;20030;-81
2023/09/27 10:54:43;;;;;;;5.43;2.35;;;23.20;90.00;;;;;;5023683;28;20030;-78
2023/09/27 10:57:09;;;;;;;6.90;3.08;;;23.30;90.20;;;;;;5029573;28;20053;-83
2023/09/27 10:59:35;;;;;;;5.20;2.92;;;23.20;90.10;;;;;;5032541;28;20061;-80
2023/09/27 11:02:03;;;;;;;3.88;2.15;;;23.30;90.60;;;;;;5031153;28;21137;-76
2023/09/27 11:04:30;;;;;;;3.80;2.17;;;23.30;90.10;;;;;;5032601;28;20083;-82
2023/09/27 11:06:56;;;;;;;7.07;2.40;;;23.30;90.10;;;;;;5033618;28;20045;-82
2023/09/27 11:09:23;;;;;;;4.80;3.10;;;23.30;90.30;;;;;;5033508;28;20048;-84
2023/09/27 11:11:57;;;;;;;4.10;2.88;;;23.40;90.30;;;;;;5032330;28;20029;-81
2023/09/27 11:14:33;;;;;;;3.33;2.42;;;23.50;90.40;;;;;;5033302;28;20100;-82
2023/09/27 11:17:18;;;;;;;5.63;2.85;;;23.50;90.40;;;;;;5030303;28;20037;-81
2023/09/27 11:19:44;;;;;;;4.30;2.50;;;23.50;90.20;;;;;;5029482;28;20040;-82
2023/09/27 11:22:10;;;;;;;4.40;2.50;;;23.50;90.00;;;;;;5031884;28;20032;-83
2023/09/27 11:24:38;;;;;;;3.33;2.35;;;23.50;89.30;;;;;;5032092;28;20053;-82
2023/09/27 11:27:05;;;;;;;4.75;2.33;;;23.40;88.20;;;;;;5033465;28;20103;-83
2023/09/27 11:29:30;;;;;;;3.80;2.33;;;23.40;88.40;;;;;;5031089;28;20030;-80
2023/09/27 11:31:57;;;;;;;6.38;2.92;;;23.40;88.20;;;;;;5034820;28;20034;-80
2023/09/27 11:34:23;;;;;;;6.53;1.90;;;23.40;88.10;;;;;;5036157;28;20030;-81
2023/09/27 11:36:57;;;;;;;4.50;2.75;;;23.40;88.40;;;;;;5031427;28;20493;-82
2023/09/27 11:39:29;;;;;;;6.07;2.83;;;23.40;88.70;;;;;;5030210;28;20036;-80
2023/09/27 11:41:58;;;;;;;4.15;2.00;;;23.40;89.00;;;;;;5031343;28;20105;-78
2023/09/27 11:44:26;;;;;;;3.10;1.95;;;23.30;89.20;;;;;;5030561;28;20080;-81
2023/09/27 11:47:06;;;;;;;7.75;2.60;;;23.40;88.50;;;;;;5029928;28;20500;-80
2023/09/27 11:49:33;;;;;;;6.00;2.55;;;23.40;88.80;;;;;;5031585;28;20029;-80
2023/09/27 11:52:01;;;;;;;3.38;2.30;;;23.50;89.20;;;;;;5030447;28;20045;-80
2023/09/27 11:54:27;;;;;;;4.22;2.85;;;23.70;88.20;;;;;;5031101;28;20437;-81
2023/09/27 11:56:53;;;;;;;5.78;2.97;;;23.90;88.40;;;;;;5033682;28;20434;-81
2023/09/27 11:59:19;;;;;;;5.28;2.30;;;24.20;87.50;;;;;;5030704;28;20107;-85
2023/09/27 12:01:45;;;;;;;4.90;2.78;;;24.30;87.00;;;;;;5030542;28;20470;-82
2023/09/27 12:04:10;;;;;;;5.95;2.28;;;24.50;85.90;;;;;;5028427;28;20061;-81
2023/09/27 12:06:37;;;;;;;5.88;2.15;;;24.60;86.40;;;;;;5030906;28;20432;-83
2023/09/27 12:09:05;;;;;;;4.93;2.40;;;24.80;85.70;;;;;;5027539;28;20430;-82
2023/09/27 12:11:31;;;;;;;7.97;2.97;;;25.00;84.70;;;;;;5031139;28;20041;-81
2023/09/27 12:13:57;;;;;;;4.43;2.55;;;25.00;83.60;;;;;;5031265;28;20033;-82
2023/09/27 12:16:23;;;;;;;5.85;2.03;;;25.20;83.10;;;;;;5031217;28;20028;-80
2023/09/27 12:18:48;;;;;;;7.03;2.88;;;25.40;82.60;;;;;;5032541;28;20124;-82
2023/09/27 12:21:14;;;;;;;5.43;2.63;;;25.40;80.50;;;;;;5029037;28;20442;-80
2023/09/27 12:23:40;;;;;;;5.95;3.28;;;25.50;79.00;;;;;;5030829;28;20052;-82
2023/09/27 12:26:09;;;;;;;5.18;2.80;;;25.50;78.20;;;;;;5031355;28;20145;-85
2023/09/27 12:28:36;;;;;;;6.45;2.90;;;25.50;79.40;;;;;;5032623;28;20038;-83
2023/09/27 12:31:06;;;;;;;4.53;2.50;;;25.60;77.80;;;;;;5032300;28;20030;-82
2023/09/27 12:33:33;;;;;;;3.85;2.05;;;25.60;78.30;;;;;;5032775;28;20032;-81
2023/09/27 12:35:59;;;;;;;3.85;2.42;;;25.70;78.90;;;;;;5032997;28;20156;-81
2023/09/27 12:38:26;;;;;;;4.03;2.50;;;25.70;78.80;;;;;;5032975;28;20458;-82
2023/09/27 12:40:52;;;;;;;5.55;2.47;;;25.60;78.40;;;;;;5032865;28;20080;-84
2023/09/27 12:43:17;;;;;;;3.38;2.00;;;25.60;78.40;;;;;;5036824;28;20057;-82
2023/09/27 12:45:43;;;;;;;5.90;2.50;;;25.60;79.40;;;;;;5051392;28;20033;-83
2023/09/27 12:48:09;;;;;;;4.63;2.20;;;25.60;78.30;;;;;;5035955;28;20543;-80